Page 1 of 1

Storm Gloria: 40kn headwinds in BCN

Posted: Tue Jan 21, 2020 8:39 am
by aircatalonia
Pretty amusing to watch.

Image

LEBL 210830Z 06036G54KT 1500 RA SCT007 BKN015 FEW020CB 10/10 Q1023 TEMPO 5000

Re: Storm Gloria: 40kn headwinds in BCN

Posted: Tue Jan 21, 2020 9:22 am
by pdp
Being a mere pixel pilot, I'd love to see what the delta between VRef and VApp would be!

Re: Storm Gloria: 40kn headwinds in BCN

Posted: Tue Jan 21, 2020 10:04 am
by zeke
pdp wrote:
Being a mere pixel pilot, I'd love to see what the delta between VRef and VApp would be!


For the A350 landing on 07L with a wet runway and the conditions on the metar

Image